Résultats

URBAN TRAIL - 5KM. Édition 2019.

5 Km
20/07/2019 à 18:00:00 - EMBRUN (05)
56 arrivant(e)s.





Place▲ Temps Dossard Nom Prenom Categ #Categ Sexe #Sexe Club Vit Moy Diplôme Partager
1 00:17:36 232 VILLY RONALD SEM 1 M 1 OM ATHLETISME 17.05
2 00:19:09 243 DUPUY CLEMENT SEM 2 M 2 UAM 15.67
3 00:19:33 252 GONON THIERRY M1M 1 M 3 CS SERRE CHEVALIER 15.35
4 00:19:45 215 MERLE SEBASTIEN M1M 2 M 4 15.19
5 00:19:58 247 DENAIS LEO SEM 3 M 5 15.03
6 00:20:24 223 SANCHEZ SERGE M2M 1 M 6 MASSALIA MARATHON 14.71
7 00:20:33 231 VILLY JONATHAN SEM 4 M 7 S/L OLYMPIQUE DE MARSEILLE ATHLE 14.60
8 00:20:37 241 DUPUY ARTHUR JUM 1 M 8 UNION ATHLETIC MONTERAU 14.55
9 00:20:41 260 BOITEUX QUENTIN ESM 1 M 9 14.50
10 00:20:48 204 BUSH OWEN CAM 1 M 10 14.42
11 00:21:10 254 BRUNET JULIEN CAM 2 M 11 SCOCE 14.17
12 00:21:18 235 NYS ARTHUR MIM 1 M 12 AC CAMBRAI 14.08
13 00:21:31 250 DEHAYSE THOMAS MIM 2 M 13 ST MAX ESSEY CLUB ATHLE 13.94
14 00:22:03 244 BELIN MATHILDE SEF 1 F 1 SL GRENOBLE 13.61
15 00:22:13 246 MOLINENGO STEPHANE SEM 5 M 14 13.50
16 00:22:41 256 BELLICAUD THIERRY M2M 2 M 15 EMBRUN ATHLETIC CLUB 13.23
17 00:22:44 251 DEHAYE JEROME M1M 3 M 16 CAMPING LES AIRELLES 13.20
18 00:23:01 249 DEHAYSE RENAUD M2M 3 M 17 SL VANDOEUVRE ATHLETISME 13.03
19 00:23:10 213 LE-BRISSE HUGO CAM 3 M 18 U C Q 12.95
20 00:23:12 206 CLEMENT NELIE CAF 1 F 2 CLUB ELITE GHAA 12.93
21 00:23:47 208 DESSALLES PATRICK M2M 4 M 19 12.61
22 00:23:53 238 DELBANO VINCENT SEM 6 M 20 12.56
23 00:24:07 240 DESALLES GUILLAUME SEM 7 M 21 12.44
24 00:24:22 221 RUBIO CEDRIC SEM 8 M 22 12.31
25 00:24:26 209 DEWAELE THOMAS CAM 4 M 23 12.28
26 00:24:46 228 TEISSIER ERIKA SEF 2 F 3 ROGNAC AC 12.11
27 00:25:51 239 DERVILLEZ JEAN-PIERRE M3M 1 M 24 ASS LA SAULCE 11.61
28 00:25:56 230 VILLY JEAN-CHARLES M3M 2 M 25 SCO STE-MARGUERITE 11.57
29 00:26:23 237 LE-BRISSE JACQUES M1M 4 M 26 UC QUIMPERLE 11.37
30 00:27:17 214 MAITREPIERRE JEROME M2M 5 M 27 MASSALIA MARATHON 11.00
31 00:27:17 211 GEOFFROY THIBAULT M1M 5 M 28 11.00
32 00:27:28 201 BARRE QUENTIN SEM 9 M 29 10.92
33 00:28:17 253 MATHIEU HELENE SEF 3 F 4 SL EMBRUN 10.61
34 00:28:37 200 ALLIMANT ALAIN SEM 10 M 30 10.48
35 00:29:03 248 DEHAYE VANESSA M1F 1 F 5 10.33
36 00:29:23 259 LACHAISE AGNES M1F 2 F 6 ASPTT TOULON LA VALETTE 10.21
37 00:29:44 242 MARCOS CHLOE SEF 4 F 7 10.09
38 00:29:52 219 PROTAT MARIE SEF 5 F 8 DAUPHIN DE L'ELORN TRIATHLON LANDERNEAU 10.04
39 00:29:52 202 BRANCHU JEREMY SEM 11 M 31 DAUPHINS DE L'ELORN TRIATHLON LANDERNEAU 10.04
40 00:30:46 224 SCHRAUBEN CAROLINE M1F 3 F 9 9.75
41 00:30:47 234 MAITREPIERRE MARIE M1F 4 F 10 MASSILIA MARATHON 9.75
42 00:31:14 217 PAILLOUX MARION SEF 6 F 11 9.61
43 00:31:21 220 RUBI STEPHANE M1M 6 M 32 LES FOULEES PELISSANNAISES 9.57
44 00:31:47 207 DANQUIGNY SANDRINE M2F 1 F 12 9.44
45 00:31:59 245 FAUQUEMBERGUE MAGALIE M1F 5 F 13 9.38
46 00:32:00 218 PAINDAVOINE FABRICE M1M 7 M 33 9.38
47 00:32:54 210 DIOLOGENT EMILIE SEF 7 F 14 9.12
48 00:38:39 203 BREDO RAPHAEL M1M 8 M 34 7.76
49 00:38:55 226 STACHE EDDY M2M 6 M 35 RUNNIN'GREZ 7.71
50 00:40:20 229 VERHEYE FABIENNE M2F 2 F 15 RUNNIN'GREZ 7.44
51 00:41:09 236 LE-BRISSE MARIE M1F 6 F 16 LES JOGGEURS DE L'AILA 7.29
52 00:41:09 216 NEGARET MARGAUX JUF 1 F 17 VAINCRE PARKINSON 7.29
53 00:41:50 225 SOBOLEWSKI LAURA SEF 8 F 18 TRICAT 7.17
54 00:46:46 212 GRIDEL CHRISTINE M2F 3 F 19 6.41
55 00:46:49 205 CATTANT DANIEL M4M 1 M 36 6.41
56 00:50:38 233 VINX MYRIELLE M2F 4 F 20 5.92